Time;durP1;ratioP1;P1;durP2;ratioP2;P2;SDS_P1;SDS_P2;PMS_P1;PMS_P2;Temp;Humidity;BMP_temperature;BMP_pressure;BME280_temperature;BME280_humidity;BME280_pressure;Samples;Min_cycle;Max_cycle;Signal;HPM_P1;HPM_P2
2023/12/24 00:02:13;;;;;;;9.70;5.40;;;;;;;0.84;100.00;97965.36;109398;1252;72755;-57
2023/12/24 00:04:42;;;;;;;11.20;6.50;;;;;;;0.84;100.00;97968.67;109446;1253;59362;-57
2023/12/24 00:07:09;;;;;;;9.90;5.70;;;;;;;0.83;100.00;97968.61;109395;1253;59441;-57
2023/12/24 00:09:37;;;;;;;9.00;4.70;;;;;;;0.82;100.00;97969.00;109349;1253;73450;-60
2023/12/24 00:12:06;;;;;;;7.30;4.10;;;;;;;0.82;100.00;97969.19;109421;1252;67160;-57
2023/12/24 00:14:33;;;;;;;6.80;4.20;;;;;;;0.83;100.00;97970.31;109383;1253;71734;-58
2023/12/24 00:17:03;;;;;;;9.00;4.30;;;;;;;0.81;100.00;97972.19;109381;1253;59670;-57
2023/12/24 00:19:30;;;;;;;7.40;3.80;;;;;;;0.83;100.00;97973.83;109355;1252;60038;-59
2023/12/24 00:21:58;;;;;;;6.20;4.00;;;;;;;0.83;100.00;97975.21;109398;1253;74688;-57
2023/12/24 00:24:26;;;;;;;7.30;4.30;;;;;;;0.85;100.00;97976.94;109401;1253;65846;-57
2023/12/24 00:26:53;;;;;;;8.30;5.20;;;;;;;0.86;100.00;97971.14;109396;1253;72955;-57
2023/12/24 00:29:21;;;;;;;6.20;4.00;;;;;;;0.87;100.00;97972.70;109353;1253;61604;-58
2023/12/24 00:31:48;;;;;;;5.80;3.30;;;;;;;0.88;100.00;97978.44;109382;1253;60736;-57
2023/12/24 00:34:16;;;;;;;5.50;2.90;;;;;;;0.86;100.00;97977.73;109428;1252;74716;-58
2023/12/24 00:36:44;;;;;;;5.00;2.80;;;;;;;0.88;100.00;97980.16;109239;1253;65734;-57
2023/12/24 00:39:11;;;;;;;3.50;1.90;;;;;;;0.89;100.00;97982.74;109347;1256;72749;-58
2023/12/24 00:41:39;;;;;;;4.70;1.90;;;;;;;0.90;100.00;97988.48;109274;1253;59239;-62
2023/12/24 00:44:07;;;;;;;5.40;2.40;;;;;;;0.88;100.00;97986.41;109379;1252;60070;-58
2023/12/24 00:46:35;;;;;;;5.60;2.70;;;;;;;0.88;100.00;97995.97;109387;1253;74659;-59
2023/12/24 00:49:02;;;;;;;3.90;2.10;;;;;;;0.89;100.00;98001.34;109437;1253;66796;-58
2023/12/24 00:51:30;;;;;;;5.30;2.40;;;;;;;0.91;100.00;98006.93;109349;1253;70490;-58
2023/12/24 00:54:00;;;;;;;4.40;2.30;;;;;;;0.91;100.00;98010.73;109358;1253;59042;-58
2023/12/24 00:56:27;;;;;;;4.00;1.70;;;;;;;0.92;100.00;98010.30;109390;1253;59376;-58
2023/12/24 00:58:55;;;;;;;4.90;2.10;;;;;;;0.94;100.00;98014.48;109379;1253;73449;-58
2023/12/24 01:01:23;;;;;;;4.00;2.30;;;;;;;0.95;100.00;98018.98;109373;1253;65628;-59
2023/12/24 01:03:51;;;;;;;5.60;2.80;;;;;;;0.94;100.00;98019.21;109147;1253;71435;-58
2023/12/24 01:06:18;;;;;;;5.40;2.70;;;;;;;0.95;100.00;98016.96;109346;1253;58881;-59
2023/12/24 01:08:46;;;;;;;4.60;2.50;;;;;;;0.95;100.00;98019.52;109418;1252;58892;-59
2023/12/24 01:11:14;;;;;;;4.20;2.00;;;;;;;0.95;100.00;98024.04;109391;1252;74699;-58
2023/12/24 01:13:42;;;;;;;3.70;2.00;;;;;;;0.97;100.00;98021.33;109331;1252;65647;-60
2023/12/24 01:16:10;;;;;;;3.80;2.00;;;;;;;0.96;100.00;98025.39;109405;1253;72813;-58
2023/12/24 01:18:37;;;;;;;4.30;2.20;;;;;;;0.95;100.00;98024.59;109323;1253;60980;-58
2023/12/24 01:21:05;;;;;;;4.10;2.40;;;;;;;0.95;100.00;98028.09;109187;1253;60146;-59
2023/12/24 01:23:33;;;;;;;4.70;2.40;;;;;;;0.94;100.00;98030.65;109385;1253;72888;-59
2023/12/24 01:26:00;;;;;;;4.10;2.10;;;;;;;0.94;100.00;98033.56;109360;1253;67891;-58
2023/12/24 01:28:28;;;;;;;4.30;2.20;;;;;;;0.95;100.00;98035.23;109356;1253;72880;-59
2023/12/24 01:30:56;;;;;;;4.90;2.60;;;;;;;0.95;100.00;98036.23;109370;1253;59581;-58
2023/12/24 01:33:24;;;;;;;4.70;2.50;;;;;;;0.94;100.00;98033.25;109371;1253;59084;-59
2023/12/24 01:35:52;;;;;;;6.10;2.90;;;;;;;0.93;100.00;98035.32;109284;1254;74733;-62
2023/12/24 01:38:19;;;;;;;4.90;2.60;;;;;;;0.92;100.00;98041.59;109387;1254;66938;-58
2023/12/24 01:40:47;;;;;;;5.40;3.10;;;;;;;0.90;100.00;98046.44;109435;1254;72849;-59
2023/12/24 01:43:15;;;;;;;5.40;2.90;;;;;;;0.87;100.00;98047.46;109397;1253;58972;-59
2023/12/24 01:45:42;;;;;;;5.20;2.60;;;;;;;0.86;100.00;98049.58;109341;1254;58949;-62
2023/12/24 01:48:13;;;;;;;5.60;3.10;;;;;;;0.84;100.00;98051.09;109417;1253;73683;-59
2023/12/24 01:50:40;;;;;;;6.50;3.10;;;;;;;0.85;100.00;98055.02;109188;1253;67147;-60
2023/12/24 01:53:08;;;;;;;6.80;3.30;;;;;;;0.87;100.00;98056.11;109397;1252;71472;-59
2023/12/24 01:55:36;;;;;;;6.60;3.80;;;;;;;0.88;100.00;98058.14;109328;1255;59402;-60
2023/12/24 01:58:03;;;;;;;6.20;3.20;;;;;;;0.89;100.00;98063.21;109222;1253;60344;-59
2023/12/24 02:00:31;;;;;;;9.90;4.20;;;;;;;0.90;100.00;98063.45;109343;1252;74789;-60
2023/12/24 02:02:59;;;;;;;8.00;3.70;;;;;;;0.89;100.00;98067.50;109386;1253;66975;-59
2023/12/24 02:05:27;;;;;;;7.40;3.60;;;;;;;0.90;100.00;98068.15;109216;1253;71513;-63
2023/12/24 02:07:57;;;;;;;7.00;4.30;;;;;;;0.92;100.00;98070.79;109301;1253;59491;-59
2023/12/24 02:10:25;;;;;;;7.20;3.40;;;;;;;0.92;100.00;98070.80;109367;1253;59189;-59
2023/12/24 02:12:52;;;;;;;7.50;3.80;;;;;;;0.90;100.00;98075.96;109216;1253;73800;-59
2023/12/24 02:15:20;;;;;;;8.10;4.20;;;;;;;0.88;100.00;98082.14;109205;1257;66976;-59
2023/12/24 02:17:48;;;;;;;7.80;4.30;;;;;;;0.89;100.00;98084.52;109354;1252;73087;-60
2023/12/24 02:20:18;;;;;;;8.80;4.20;;;;;;;0.88;100.00;98085.06;109192;1254;59615;-60
2023/12/24 02:22:46;;;;;;;6.30;4.10;;;;;;;0.89;100.00;98090.83;109368;1253;60120;-59
2023/12/24 02:25:14;;;;;;;9.10;4.20;;;;;;;0.87;100.00;98089.30;109417;1253;74611;-63
2023/12/24 02:27:46;;;;;;;6.00;3.50;;;;;;;0.85;100.00;98089.77;109373;1257;65640;-60
2023/12/24 02:30:23;;;;;;;7.60;3.70;;;;;;;0.83;100.00;98092.64;109205;1254;70764;-59
2023/12/24 02:32:54;;;;;;;7.10;4.40;;;;;;;0.81;100.00;98096.66;109010;1253;59756;-60
2023/12/24 02:35:27;;;;;;;6.90;4.00;;;;;;;0.76;100.00;98099.11;109262;1253;59946;-60
2023/12/24 02:37:54;;;;;;;8.20;4.00;;;;;;;0.72;100.00;98100.71;109333;1254;74730;-61
2023/12/24 02:40:22;;;;;;;9.60;4.60;;;;;;;0.69;100.00;98109.33;109207;1253;67002;-60
2023/12/24 02:42:50;;;;;;;7.50;4.60;;;;;;;0.66;100.00;98114.22;109136;1254;72701;-62
2023/12/24 02:45:18;;;;;;;9.20;5.00;;;;;;;0.65;100.00;98115.87;109320;1256;59659;-60
2023/12/24 02:47:46;;;;;;;8.90;5.00;;;;;;;0.67;100.00;98115.02;109375;1253;58972;-60
2023/12/24 02:50:18;;;;;;;9.10;5.00;;;;;;;0.67;100.00;98119.40;109394;1253;75078;-60
2023/12/24 02:52:46;;;;;;;7.30;4.80;;;;;;;0.65;100.00;98118.50;109358;1254;66934;-61
2023/12/24 02:55:13;;;;;;;10.30;5.60;;;;;;;0.63;100.00;98124.66;109352;1253;72823;-60
2023/12/24 02:57:41;;;;;;;12.00;6.20;;;;;;;0.63;100.00;98129.50;109375;1253;60911;-60
2023/12/24 03:00:09;;;;;;;9.70;5.90;;;;;;;0.63;100.00;98133.73;109372;1252;60042;-60
2023/12/24 03:02:39;;;;;;;13.50;6.00;;;;;;;0.62;100.00;98136.04;109333;1254;73467;-61
2023/12/24 03:05:07;;;;;;;11.30;5.80;;;;;;;0.61;100.00;98141.49;109226;1253;65643;-60
2023/12/24 03:07:35;;;;;;;12.60;6.20;;;;;;;0.58;100.00;98148.36;109319;1252;73187;-60
2023/12/24 03:10:03;;;;;;;11.00;6.10;;;;;;;0.56;100.00;98150.64;109326;1252;59824;-60
2023/12/24 03:12:30;;;;;;;11.80;6.20;;;;;;;0.53;100.00;98157.23;109340;1253;59081;-64
2023/12/24 03:14:58;;;;;;;12.00;6.00;;;;;;;0.51;100.00;98160.77;109346;1252;75365;-61
2023/12/24 03:17:26;;;;;;;12.60;6.30;;;;;;;0.47;100.00;98166.85;109228;1254;67087;-61
2023/12/24 03:19:54;;;;;;;11.00;6.30;;;;;;;0.42;100.00;98169.73;109470;1252;71782;-61
2023/12/24 03:22:22;;;;;;;10.60;6.00;;;;;;;0.40;100.00;98173.39;109309;1253;59650;-60
2023/12/24 03:24:49;;;;;;;13.40;6.50;;;;;;;0.39;100.00;98181.02;109330;1254;59434;-61
2023/12/24 03:27:18;;;;;;;10.10;5.30;;;;;;;0.36;100.00;98180.21;109379;1254;73525;-61
2023/12/24 03:29:45;;;;;;;13.60;6.60;;;;;;;0.32;100.00;98182.47;109259;1253;65963;-61
2023/12/24 03:32:13;;;;;;;12.50;6.40;;;;;;;0.28;100.00;98186.68;109350;1253;71086;-60
2023/12/24 03:34:41;;;;;;;12.00;6.60;;;;;;;0.23;100.00;98189.40;109182;1254;60913;-62
2023/12/24 03:37:08;;;;;;;14.00;7.50;;;;;;;0.20;100.00;98192.33;109318;1253;58885;-61
2023/12/24 03:39:36;;;;;;;11.20;6.00;;;;;;;0.15;100.00;98198.45;109190;1252;74674;-60
2023/12/24 03:42:04;;;;;;;12.50;6.80;;;;;;;0.10;100.00;98199.83;109347;1253;66885;-61
2023/12/24 03:44:31;;;;;;;13.50;6.40;;;;;;;0.03;100.00;98198.48;109341;1252;71460;-61
2023/12/24 03:46:59;;;;;;;12.90;6.50;;;;;;;-0.11;100.00;98196.84;109313;1253;59372;-64
2023/12/24 03:49:27;;;;;;;12.20;6.80;;;;;;;-0.26;100.00;98199.66;109374;1252;60000;-61
2023/12/24 03:51:54;;;;;;;11.40;6.20;;;;;;;-0.41;100.00;98203.67;109345;1252;74704;-60
2023/12/24 03:54:22;;;;;;;11.50;5.80;;;;;;;-0.51;100.00;98205.92;109393;1253;66894;-61
2023/12/24 03:56:50;;;;;;;12.20;6.90;;;;;;;-0.55;100.00;98208.27;109400;1252;72877;-61
2023/12/24 03:59:17;;;;;;;14.40;6.50;;;;;;;-0.58;100.00;98210.77;109358;1254;60096;-61
2023/12/24 04:01:45;;;;;;;11.60;5.70;;;;;;;-0.60;100.00;98212.98;109380;1254;58952;-61
2023/12/24 04:04:13;;;;;;;17.00;7.00;;;;;;;-0.60;100.00;98213.91;109327;1254;74716;-61
2023/12/24 04:06:40;;;;;;;11.60;6.40;;;;;;;-0.61;100.00;98218.28;109311;1254;66819;-61
2023/12/24 04:09:09;;;;;;;8.40;5.80;;;;;;;-0.63;100.00;98219.28;109313;1252;72730;-61
2023/12/24 04:11:37;;;;;;;12.10;6.90;;;;;;;-0.63;100.00;98223.48;109219;1253;58916;-61
2023/12/24 04:14:04;;;;;;;11.40;5.50;;;;;;;-0.64;100.00;98226.77;109241;1254;59818;-61
2023/12/24 04:16:32;;;;;;;14.00;6.10;;;;;;;-0.63;100.00;98225.06;109236;1254;74634;-61
2023/12/24 04:19:00;;;;;;;11.90;6.60;;;;;;;-0.62;100.00;98233.03;109320;1253;66149;-61
2023/12/24 04:21:28;;;;;;;10.60;5.90;;;;;;;-0.59;100.00;98240.77;109262;1254;71422;-61
2023/12/24 04:23:56;;;;;;;12.80;7.00;;;;;;;-0.56;100.00;98245.19;109301;1254;59841;-62
2023/12/24 04:26:23;;;;;;;11.50;5.90;;;;;;;-0.54;100.00;98250.71;109298;1252;58893;-61
2023/12/24 04:28:52;;;;;;;9.00;5.50;;;;;;;-0.53;100.00;98254.71;109319;1253;74738;-62
2023/12/24 04:31:19;;;;;;;11.10;6.20;;;;;;;-0.52;100.00;98258.06;109244;1254;67072;-61
2023/12/24 04:33:47;;;;;;;10.20;5.80;;;;;;;-0.52;100.00;98264.89;109228;1253;72740;-62
2023/12/24 04:36:21;;;;;;;11.20;5.50;;;;;;;-0.51;100.00;98265.84;109174;1254;59935;-62
2023/12/24 04:38:48;;;;;;;10.60;5.90;;;;;;;-0.50;100.00;98269.93;109286;1253;60203;-62
2023/12/24 04:41:19;;;;;;;8.30;4.60;;;;;;;-0.47;100.00;98270.19;109271;1252;74652;-61
2023/12/24 04:43:47;;;;;;;8.80;5.40;;;;;;;-0.47;100.00;98273.23;109332;1253;67076;-61
2023/12/24 04:46:15;;;;;;;11.00;6.50;;;;;;;-0.48;100.00;98270.95;109238;1252;71737;-61
2023/12/24 04:48:43;;;;;;;11.70;6.20;;;;;;;-0.51;100.00;98273.61;109182;1254;60908;-64
2023/12/24 04:51:11;;;;;;;10.30;5.80;;;;;;;-0.56;100.00;98272.61;109223;1253;59159;-61
2023/12/24 04:53:39;;;;;;;10.20;5.70;;;;;;;-0.63;100.00;98276.59;109277;1254;74728;-62
2023/12/24 04:56:18;;;;;;;11.90;6.20;;;;;;;-0.70;100.00;98280.30;109261;1252;66922;-62
2023/12/24 04:58:46;;;;;;;11.90;6.80;;;;;;;-0.77;100.00;98283.66;109192;1254;71471;-63
2023/12/24 05:01:16;;;;;;;11.60;6.50;;;;;;;-0.84;100.00;98285.98;109285;1253;59672;-62
2023/12/24 05:03:43;;;;;;;11.90;5.70;;;;;;;-0.92;100.00;98291.41;109327;1253;60286;-61
2023/12/24 05:06:11;;;;;;;10.10;6.20;;;;;;;-1.00;100.00;98294.12;109216;1253;73494;-62
2023/12/24 05:08:40;;;;;;;11.20;5.10;;;;;;;-1.09;100.00;98296.59;109337;1253;67180;-65
2023/12/24 05:11:10;;;;;;;10.30;6.20;;;;;;;-1.16;100.00;98293.38;109241;1252;72608;-62
2023/12/24 05:13:38;;;;;;;11.90;6.30;;;;;;;-1.18;100.00;98292.89;109194;1252;61023;-61
2023/12/24 05:16:07;;;;;;;11.70;6.50;;;;;;;-1.17;100.00;98299.07;109360;1253;60082;-61
2023/12/24 05:18:37;;;;;;;10.20;5.70;;;;;;;-1.13;100.00;98302.08;109257;1253;74702;-62
2023/12/24 05:21:05;;;;;;;9.60;5.30;;;;;;;-1.08;100.00;98310.27;109227;1253;65383;-62
2023/12/24 05:23:34;;;;;;;10.00;6.40;;;;;;;-1.04;100.00;98313.55;109336;1253;72644;-62
2023/12/24 05:26:02;;;;;;;11.40;6.80;;;;;;;-0.97;100.00;98321.09;109301;1253;59679;-62
2023/12/24 05:28:30;;;;;;;11.10;5.90;;;;;;;-0.90;100.00;98322.27;109325;1252;60026;-63
2023/12/24 05:30:58;;;;;;;11.80;6.70;;;;;;;-0.85;100.00;98330.07;109343;1252;75058;-62
2023/12/24 05:33:26;;;;;;;11.40;6.40;;;;;;;-0.80;100.00;98328.99;109361;1254;67412;-62
2023/12/24 05:35:57;;;;;;;10.40;5.60;;;;;;;-0.78;100.00;98328.93;109303;1253;73225;-63
2023/12/24 05:38:25;;;;;;;10.50;5.80;;;;;;;-0.76;100.00;98330.17;109316;1253;59329;-63
2023/12/24 05:40:53;;;;;;;10.40;5.90;;;;;;;-0.76;100.00;98336.10;109301;1252;59461;-62
2023/12/24 05:43:20;;;;;;;10.70;6.40;;;;;;;-0.76;100.00;98337.45;109358;1253;74750;-64
2023/12/24 05:45:48;;;;;;;11.70;7.10;;;;;;;-0.75;100.00;98336.17;109308;1253;66094;-62
2023/12/24 05:48:16;;;;;;;11.70;6.00;;;;;;;-0.73;100.00;98338.17;109302;1253;72678;-63
2023/12/24 05:50:44;;;;;;;11.00;5.80;;;;;;;-0.70;100.00;98342.15;109373;1252;59467;-63
2023/12/24 05:53:11;;;;;;;10.40;6.10;;;;;;;-0.66;100.00;98345.58;109342;1253;60041;-63
2023/12/24 05:55:39;;;;;;;10.70;6.40;;;;;;;-0.64;100.00;98354.31;109451;1252;73191;-62
2023/12/24 05:58:07;;;;;;;11.50;7.10;;;;;;;-0.58;100.00;98357.45;109319;1253;65797;-62
2023/12/24 06:00:35;;;;;;;9.50;6.40;;;;;;;-0.52;100.00;98356.81;109317;1252;72742;-62
2023/12/24 06:03:03;;;;;;;10.30;5.90;;;;;;;-0.46;100.00;98356.44;109326;1252;58918;-63
2023/12/24 06:05:31;;;;;;;13.10;7.00;;;;;;;-0.40;100.00;98358.52;109334;1253;58999;-62
2023/12/24 06:07:59;;;;;;;10.60;5.60;;;;;;;-0.32;100.00;98368.92;109352;1252;74777;-63
2023/12/24 06:10:27;;;;;;;11.60;6.90;;;;;;;-0.27;100.00;98370.83;109335;1253;66839;-63
2023/12/24 06:12:54;;;;;;;12.70;7.40;;;;;;;-0.21;100.00;98374.14;109288;1253;72974;-64
2023/12/24 06:15:22;;;;;;;12.00;6.80;;;;;;;-0.14;100.00;98376.77;109327;1254;60982;-63
2023/12/24 06:17:50;;;;;;;9.80;6.40;;;;;;;-0.06;100.00;98379.20;109339;1252;60192;-63
2023/12/24 06:20:18;;;;;;;11.00;5.80;;;;;;;0.00;100.00;98384.20;109334;1253;74727;-63
2023/12/24 06:22:46;;;;;;;11.50;5.90;;;;;;;0.07;100.00;98384.70;109333;1252;65686;-63
2023/12/24 06:25:13;;;;;;;9.90;5.70;;;;;;;0.10;100.00;98382.06;109323;1252;71401;-63
2023/12/24 06:27:41;;;;;;;12.00;6.50;;;;;;;0.16;100.00;98387.75;109306;1253;60901;-63
2023/12/24 06:30:09;;;;;;;10.80;6.60;;;;;;;0.24;100.00;98391.91;109341;1252;60274;-64
2023/12/24 06:32:37;;;;;;;13.50;6.90;;;;;;;0.30;100.00;98392.83;109268;1253;74730;-66
2023/12/24 06:35:05;;;;;;;11.70;7.00;;;;;;;0.36;100.00;98394.19;109311;1252;67544;-64
2023/12/24 06:37:33;;;;;;;11.60;6.70;;;;;;;0.43;100.00;98396.16;109315;1253;71478;-65
2023/12/24 06:40:01;;;;;;;11.00;6.20;;;;;;;0.51;100.00;98393.42;109312;1252;60908;-65
2023/12/24 06:42:29;;;;;;;11.60;6.50;;;;;;;0.60;100.00;98398.69;109344;1252;60027;-65
2023/12/24 06:44:56;;;;;;;11.70;6.70;;;;;;;0.68;100.00;98399.88;109369;1252;75086;-66
2023/12/24 06:47:24;;;;;;;11.40;6.60;;;;;;;0.76;100.00;98396.23;109321;1253;66928;-66
2023/12/24 06:49:52;;;;;;;12.90;7.40;;;;;;;0.83;100.00;98399.29;109323;1253;72755;-65
2023/12/24 06:52:19;;;;;;;13.70;7.50;;;;;;;0.89;100.00;98393.77;109332;1252;59715;-66
2023/12/24 06:54:47;;;;;;;11.50;7.40;;;;;;;0.95;100.00;98395.74;109316;1252;60131;-67
2023/12/24 06:57:15;;;;;;;11.10;6.80;;;;;;;1.01;100.00;98396.45;109336;1253;74711;-66
2023/12/24 06:59:42;;;;;;;14.90;8.70;;;;;;;1.08;100.00;98397.34;109330;1253;67171;-67
2023/12/24 07:02:10;;;;;;;14.70;7.70;;;;;;;1.13;100.00;98398.77;109311;1253;72723;-67
2023/12/24 07:04:38;;;;;;;16.20;9.10;;;;;;;1.19;100.00;98399.60;109332;1253;59579;-67
2023/12/24 07:07:05;;;;;;;14.00;7.90;;;;;;;1.24;100.00;98396.98;109301;1252;60740;-67
2023/12/24 07:09:33;;;;;;;13.90;8.00;;;;;;;1.28;100.00;98401.00;109299;1252;73502;-67
2023/12/24 07:12:00;;;;;;;12.30;8.00;;;;;;;1.34;100.00;98399.17;109372;1253;67084;-67
2023/12/24 07:14:28;;;;;;;12.70;7.40;;;;;;;1.36;100.00;98398.21;109259;1252;71162;-67
2023/12/24 07:16:56;;;;;;;11.80;7.70;;;;;;;1.38;100.00;98395.46;109342;1253;60960;-67
2023/12/24 07:19:23;;;;;;;11.60;7.30;;;;;;;1.37;100.00;98397.26;109314;1253;59056;-67
2023/12/24 07:21:51;;;;;;;13.70;7.70;;;;;;;1.40;100.00;98396.77;109313;1253;76719;-67
2023/12/24 07:24:19;;;;;;;12.80;7.90;;;;;;;1.44;100.00;98401.77;109347;1253;67431;-67
2023/12/24 07:26:46;;;;;;;13.50;6.80;;;;;;;1.50;100.00;98406.61;109295;1253;72723;-67
2023/12/24 07:29:14;;;;;;;11.40;7.60;;;;;;;1.58;100.00;98411.66;109194;1253;59031;-68
2023/12/24 07:31:42;;;;;;;12.50;8.00;;;;;;;1.67;100.00;98413.56;109342;1252;59600;-68
2023/12/24 07:34:09;;;;;;;11.60;6.90;;;;;;;1.77;100.00;98416.48;109343;1251;74704;-67
2023/12/24 07:36:37;;;;;;;11.70;7.60;;;;;;;1.88;100.00;98416.11;109348;1252;66357;-67
2023/12/24 07:39:04;;;;;;;14.00;7.40;;;;;;;1.96;100.00;98418.05;109310;1253;71530;-67
2023/12/24 07:41:32;;;;;;;12.30;7.70;;;;;;;2.02;100.00;98418.38;109299;1252;59682;-67
2023/12/24 07:44:00;;;;;;;13.80;8.10;;;;;;;2.09;100.00;98414.37;109233;1253;60106;-67
2023/12/24 07:46:28;;;;;;;12.90;7.70;;;;;;;2.16;100.00;98415.63;109319;1252;72984;-67
2023/12/24 07:48:55;;;;;;;10.30;7.20;;;;;;;2.26;100.00;98418.70;109372;1252;67457;-67
2023/12/24 07:51:23;;;;;;;13.00;7.50;;;;;;;2.32;100.00;98415.84;109314;1253;72729;-67
2023/12/24 07:53:51;;;;;;;12.50;8.30;;;;;;;2.37;100.00;98416.98;109142;1253;200856;-66
2023/12/24 07:56:19;;;;;;;12.40;8.20;;;;;;;2.35;100.00;98415.19;109319;1253;58957;-66
2023/12/24 07:58:46;;;;;;;13.80;7.90;;;;;;;2.24;100.00;98412.31;109337;1252;73460;-66
2023/12/24 08:01:14;;;;;;;12.10;7.90;;;;;;;2.12;100.00;98407.63;109330;1252;66868;-66
2023/12/24 08:03:42;;;;;;;11.80;7.60;;;;;;;2.07;100.00;98406.66;109337;1253;73336;-66
2023/12/24 08:06:09;;;;;;;11.40;6.90;;;;;;;2.06;100.00;98407.77;109326;1253;59652;-65
2023/12/24 08:08:37;;;;;;;11.10;6.60;;;;;;;2.06;100.00;98408.39;109357;1253;59021;-66
2023/12/24 08:11:05;;;;;;;9.20;6.60;;;;;;;2.09;100.00;98405.48;109371;1253;73443;-65
2023/12/24 08:13:43;;;;;;;12.50;7.50;;;;;;;2.14;100.00;98401.21;109334;1253;65938;-66
2023/12/24 08:16:10;;;;;;;11.80;7.50;;;;;;;2.25;100.00;98403.66;109363;1252;72729;-65
2023/12/24 08:18:38;;;;;;;12.80;7.90;;;;;;;2.40;100.00;98399.02;109387;1251;59900;-65
2023/12/24 08:21:10;;;;;;;10.40;6.20;;;;;;;2.64;100.00;98395.42;109342;1253;58938;-65
2023/12/24 08:23:38;;;;;;;12.50;7.10;;;;;;;3.00;100.00;98392.36;109319;1253;73996;-66
2023/12/24 08:26:06;;;;;;;10.30;7.00;;;;;;;3.38;100.00;98391.83;109379;1253;66108;-64
2023/12/24 08:28:33;;;;;;;9.50;6.10;;;;;;;3.60;100.00;98391.77;109334;1253;71448;-64
2023/12/24 08:31:01;;;;;;;12.30;6.90;;;;;;;3.65;100.00;98392.73;109315;1253;59674;-64
2023/12/24 08:33:29;;;;;;;10.50;7.30;;;;;;;3.56;100.00;98392.45;109292;1252;59195;-65
2023/12/24 08:35:56;;;;;;;12.60;8.80;;;;;;;3.39;100.00;98389.34;109330;1253;74747;-65
2023/12/24 08:38:24;;;;;;;14.50;8.80;;;;;;;3.19;100.00;98386.91;109360;1253;66944;-65
2023/12/24 08:40:51;;;;;;;14.00;8.30;;;;;;;2.97;100.00;98382.81;109389;1253;72900;-64
2023/12/24 08:43:19;;;;;;;14.60;8.30;;;;;;;2.79;100.00;98384.35;109309;1253;60959;-65
2023/12/24 08:45:47;;;;;;;12.70;8.40;;;;;;;2.73;100.00;98384.80;109329;1252;59693;-64
2023/12/24 08:48:14;;;;;;;15.30;10.00;;;;;;;2.69;100.00;98380.25;109347;1253;74765;-64
2023/12/24 08:50:42;;;;;;;16.10;9.50;;;;;;;2.65;100.00;98376.89;109321;1253;67110;-65
2023/12/24 08:53:11;;;;;;;14.10;8.40;;;;;;;2.59;100.00;98376.37;109342;1253;72726;-66
2023/12/24 08:55:38;;;;;;;14.00;8.60;;;;;;;2.53;100.00;98379.05;109316;1253;60923;-65
2023/12/24 08:58:06;;;;;;;13.30;8.40;;;;;;;2.48;100.00;98384.80;109363;1252;60155;-65
2023/12/24 09:00:34;;;;;;;15.10;8.90;;;;;;;2.40;100.00;98388.89;109380;1252;74836;-65
2023/12/24 09:03:02;;;;;;;12.40;8.20;;;;;;;2.33;100.00;98393.84;109332;1253;67011;-65
2023/12/24 09:05:30;;;;;;;13.10;8.00;;;;;;;2.26;100.00;98391.40;109317;1253;73215;-65
2023/12/24 09:07:58;;;;;;;12.60;8.20;;;;;;;2.21;100.00;98391.77;109327;1253;59293;-65
2023/12/24 09:10:26;;;;;;;13.80;8.60;;;;;;;2.14;100.00;98392.92;109353;1252;59444;-65
2023/12/24 09:12:53;;;;;;;12.70;8.30;;;;;;;2.06;100.00;98394.03;109338;1253;74705;-66
2023/12/24 09:15:21;;;;;;;12.20;7.80;;;;;;;1.98;100.00;98394.77;109284;1255;65395;-66
2023/12/24 09:17:49;;;;;;;14.10;8.00;;;;;;;1.95;100.00;98395.56;109414;1252;72735;-66
2023/12/24 09:20:17;;;;;;;12.20;8.40;;;;;;;1.95;100.00;98398.46;109325;1253;59403;-66
2023/12/24 09:22:44;;;;;;;11.90;8.10;;;;;;;1.97;100.00;98397.58;109302;1253;59015;-66
2023/12/24 09:25:12;;;;;;;11.40;7.40;;;;;;;1.97;100.00;98406.16;109322;1253;74658;-66
2023/12/24 09:27:40;;;;;;;12.90;7.70;;;;;;;1.95;100.00;98405.30;109352;1253;67138;-66
2023/12/24 09:30:08;;;;;;;10.90;8.20;;;;;;;1.92;100.00;98409.44;109317;1253;71676;-66
2023/12/24 09:32:35;;;;;;;13.60;8.60;;;;;;;1.92;100.00;98405.15;109320;1253;58969;-66
2023/12/24 09:35:04;;;;;;;15.20;9.10;;;;;;;1.94;100.00;98409.33;109291;1253;60151;-66
2023/12/24 09:37:32;;;;;;;14.30;8.50;;;;;;;1.94;100.00;98404.91;109339;1253;74824;-65
2023/12/24 09:39:59;;;;;;;13.30;7.80;;;;;;;1.95;100.00;98409.89;109459;1252;66940;-65
2023/12/24 09:42:27;;;;;;;13.10;8.70;;;;;;;2.08;100.00;98407.98;109338;1253;72781;-65
2023/12/24 09:44:55;;;;;;;14.70;8.00;;;;;;;2.21;100.00;98406.16;109243;1252;59503;-65
2023/12/24 09:47:22;;;;;;;13.80;8.60;;;;;;;2.37;100.00;98406.70;109317;1253;58942;-65
2023/12/24 09:49:50;;;;;;;13.10;8.40;;;;;;;2.47;100.00;98403.10;109309;1252;74767;-65
2023/12/24 09:52:18;;;;;;;14.40;9.00;;;;;;;2.44;100.00;98399.77;109321;1253;66915;-65
2023/12/24 09:54:45;;;;;;;15.70;8.60;;;;;;;2.38;100.00;98400.84;109296;1253;71425;-65
2023/12/24 09:57:13;;;;;;;15.50;10.00;;;;;;;2.25;100.00;98399.86;109322;1253;59421;-65
2023/12/24 09:59:40;;;;;;;13.30;8.30;;;;;;;2.10;100.00;98396.40;109314;1252;58944;-64
2023/12/24 10:02:08;;;;;;;12.60;8.40;;;;;;;1.95;100.00;98403.30;109346;1253;74746;-65
2023/12/24 10:04:36;;;;;;;12.60;8.80;;;;;;;1.81;100.00;98406.56;109289;1253;66920;-66
2023/12/24 10:07:04;;;;;;;14.50;8.80;;;;;;;1.69;100.00;98408.09;109439;1252;72706;-65
2023/12/24 10:09:43;;;;;;;14.20;9.20;;;;;;;1.57;100.00;98404.48;109313;1253;61037;-65
2023/12/24 10:12:10;;;;;;;15.40;9.40;;;;;;;1.48;100.00;98409.70;109399;1252;60165;-66
2023/12/24 10:14:39;;;;;;;12.90;9.40;;;;;;;1.41;100.00;98409.65;109315;1253;75606;-66
2023/12/24 10:17:07;;;;;;;17.30;9.80;;;;;;;1.35;100.00;98410.71;109347;1253;67176;-66
2023/12/24 10:19:35;;;;;;;14.20;9.20;;;;;;;1.31;100.00;98413.34;109353;1253;72601;-66
2023/12/24 10:22:07;;;;;;;17.10;9.30;;;;;;;1.29;100.00;98414.91;109313;1252;60990;-66
2023/12/24 10:24:38;;;;;;;13.50;8.50;;;;;;;1.31;100.00;98417.27;109347;1252;58881;-66
2023/12/24 10:27:10;;;;;;;15.00;9.50;;;;;;;1.33;100.00;98418.98;109351;1253;74694;-66
2023/12/24 10:29:39;;;;;;;15.30;9.80;;;;;;;1.34;100.00;98419.16;109449;1252;65625;-67
2023/12/24 10:32:10;;;;;;;14.40;9.20;;;;;;;1.36;100.00;98419.70;109286;1253;73057;-67
2023/12/24 10:34:39;;;;;;;12.90;9.30;;;;;;;1.40;100.00;98418.83;109301;1252;60937;-67
2023/12/24 10:37:17;;;;;;;12.00;8.00;;;;;;;1.47;100.00;98423.77;109343;1253;58968;-67
2023/12/24 10:39:46;;;;;;;13.50;9.20;;;;;;;1.54;100.00;98426.52;109245;1253;74788;-68
2023/12/24 10:42:14;;;;;;;15.80;9.60;;;;;;;1.59;100.00;98427.39;109328;1253;67002;-68
2023/12/24 10:44:42;;;;;;;13.30;8.00;;;;;;;1.58;100.00;98425.98;109340;1252;71402;-68
2023/12/24 10:47:10;;;;;;;11.80;7.70;;;;;;;1.56;100.00;98426.17;109337;1253;59031;-67
2023/12/24 10:49:38;;;;;;;10.80;7.50;;;;;;;1.53;100.00;98424.09;109385;1252;58926;-67
2023/12/24 10:52:06;;;;;;;12.10;8.10;;;;;;;1.46;100.00;98426.26;109336;1253;73739;-68
2023/12/24 10:54:33;;;;;;;14.70;8.60;;;;;;;1.39;100.00;98430.92;109371;1253;67338;-68
2023/12/24 10:57:32;;;;;;;13.70;8.90;;;;;;;1.35;100.00;98435.16;109315;1253;72836;-67
2023/12/24 11:00:07;;;;;;;15.60;9.30;;;;;;;1.33;100.00;98435.38;109278;1256;59370;-66
2023/12/24 11:02:51;;;;;;;14.70;8.40;;;;;;;1.35;100.00;98438.44;109352;1252;60104;-66
2023/12/24 11:05:48;;;;;;;13.70;8.40;;;;;;;1.35;100.00;98439.91;109378;1252;72439;-68
2023/12/24 11:08:19;;;;;;;11.80;7.90;;;;;;;1.34;100.00;98439.66;109394;1253;67401;-67
2023/12/24 11:11:03;;;;;;;13.30;8.90;;;;;;;1.35;100.00;98441.02;109394;1253;72733;-67
2023/12/24 11:13:36;;;;;;;14.50;9.40;;;;;;;1.36;100.00;98441.00;109332;1253;59378;-67
2023/12/24 11:16:06;;;;;;;13.70;8.10;;;;;;;1.40;100.00;98446.54;109400;1252;60127;-69
2023/12/24 11:18:43;;;;;;;14.20;8.80;;;;;;;1.43;100.00;98454.67;109329;1252;75258;-68
2023/12/24 11:21:21;;;;;;;12.40;7.70;;;;;;;1.44;100.00;98456.52;109319;1252;65699;-68
2023/12/24 11:24:14;;;;;;;14.10;9.20;;;;;;;1.44;100.00;98460.95;109367;1253;71759;-68